createdAt,value
2019-01-04T00:00:37.481Z,6.63
2019-01-04T00:03:07.003Z,6.50
2019-01-04T00:05:36.455Z,6.07
2019-01-04T00:08:05.968Z,6.47
2019-01-04T00:10:35.475Z,6.57
2019-01-04T00:13:05.036Z,7.10
2019-01-04T00:15:34.588Z,7.17
2019-01-04T00:18:04.054Z,5.93
2019-01-04T00:20:33.676Z,6.93
2019-01-04T00:23:03.296Z,6.47
2019-01-04T00:25:32.837Z,7.87
2019-01-04T00:28:02.378Z,7.17
2019-01-04T00:30:32.000Z,6.13
2019-01-04T00:33:01.585Z,7.67
2019-01-04T00:35:31.244Z,8.33
2019-01-04T00:38:00.759Z,6.67
2019-01-04T00:40:30.260Z,7.70
2019-01-04T00:42:59.781Z,8.20
2019-01-04T00:45:29.392Z,8.40
2019-01-04T00:47:58.961Z,7.77
2019-01-04T00:50:28.436Z,8.10
2019-01-04T00:52:57.985Z,7.47
2019-01-04T00:55:51.627Z,6.90
2019-01-04T00:58:59.136Z,8.03
2019-01-04T01:02:08.725Z,7.87
2019-01-04T01:05:25.687Z,9.13
2019-01-04T01:08:11.499Z,8.03
2019-01-04T01:11:09.526Z,7.67
2019-01-04T01:13:54.223Z,8.40
2019-01-04T01:16:58.956Z,8.87
2019-01-04T01:20:13.610Z,8.40
2019-01-04T01:23:16.778Z,8.37
2019-01-04T01:26:16.817Z,7.90
2019-01-04T01:29:21.761Z,8.20
2019-01-04T01:31:58.968Z,8.33
2019-01-04T01:34:48.112Z,8.30
2019-01-04T01:37:50.910Z,7.57
2019-01-04T01:40:51.961Z,8.90
2019-01-04T01:43:52.974Z,9.30
2019-01-04T01:46:46.249Z,9.40
2019-01-04T01:50:07.215Z,8.90
2019-01-04T01:52:46.306Z,9.77
2019-01-04T01:55:15.707Z,9.53
2019-01-04T01:57:45.104Z,8.87
2019-01-04T02:00:14.726Z,8.90
2019-01-04T02:02:44.215Z,8.83
2019-01-04T02:05:13.719Z,8.57
2019-01-04T02:07:43.235Z,9.10
2019-01-04T02:10:12.646Z,9.23
2019-01-04T02:12:42.129Z,10.00
2019-01-04T02:15:11.653Z,8.47
2019-01-04T02:17:41.154Z,8.03
2019-01-04T02:20:10.559Z,8.43
2019-01-04T02:22:39.979Z,9.27
2019-01-04T02:25:09.513Z,7.87
2019-01-04T02:27:38.959Z,8.50
2019-01-04T02:30:09.193Z,5.17
2019-01-04T02:32:38.687Z,8.87
2019-01-04T02:35:08.254Z,7.50
2019-01-04T02:37:37.671Z,9.87
2019-01-04T02:40:07.060Z,8.27
2019-01-04T02:42:36.466Z,8.50
2019-01-04T02:45:06.480Z,9.27
2019-01-04T02:47:35.952Z,8.70
2019-01-04T02:50:05.838Z,8.60
2019-01-04T02:52:35.248Z,8.63
2019-01-04T02:55:04.752Z,8.80
2019-01-04T02:57:34.252Z,8.40
2019-01-04T03:00:03.967Z,8.90
2019-01-04T03:02:33.426Z,9.30
2019-01-04T03:05:02.986Z,8.83
2019-01-04T03:07:32.571Z,9.60
2019-01-04T03:10:02.189Z,9.10
2019-01-04T03:12:32.016Z,8.67
2019-01-04T03:15:01.522Z,8.40
2019-01-04T03:17:31.037Z,8.90
2019-01-04T03:20:00.606Z,9.27
2019-01-04T03:22:30.071Z,8.43
2019-01-04T03:24:59.451Z,9.10
2019-01-04T03:27:28.884Z,9.67
2019-01-04T03:29:58.349Z,7.97
2019-01-04T03:32:28.198Z,8.90
2019-01-04T03:34:57.657Z,8.50
2019-01-04T03:37:27.145Z,8.80
2019-01-04T03:39:56.675Z,8.80
2019-01-04T03:42:26.360Z,9.17
2019-01-04T03:44:55.890Z,8.53
2019-01-04T03:47:25.313Z,8.73
2019-01-04T03:49:54.751Z,8.57
2019-01-04T03:52:24.283Z,8.73
2019-01-04T03:54:54.071Z,9.07
2019-01-04T03:57:23.581Z,8.63
2019-01-04T03:59:53.102Z,7.10
2019-01-04T04:02:22.561Z,8.70
2019-01-04T04:04:52.088Z,8.30
2019-01-04T04:07:21.618Z,8.50
2019-01-04T04:09:51.051Z,7.77
2019-01-04T04:12:20.579Z,8.03
2019-01-04T04:14:50.028Z,7.57
2019-01-04T04:17:19.465Z,7.77
2019-01-04T04:19:48.961Z,7.93
2019-01-04T04:22:18.392Z,9.27
2019-01-04T04:24:47.881Z,8.03
2019-01-04T04:27:17.374Z,7.50
2019-01-04T04:29:46.908Z,7.10
2019-01-04T04:32:16.472Z,7.70
2019-01-04T04:34:47.162Z,8.40
2019-01-04T04:37:16.552Z,8.20
2019-01-04T04:39:46.137Z,7.00
2019-01-04T04:42:15.628Z,8.37
2019-01-04T04:44:45.145Z,8.37
2019-01-04T04:47:14.574Z,8.03
2019-01-04T04:49:44.080Z,8.30
2019-01-04T04:52:13.552Z,7.23
2019-01-04T04:54:43.093Z,7.17
2019-01-04T04:57:12.522Z,7.27
2019-01-04T04:59:41.892Z,7.47
2019-01-04T05:02:11.323Z,7.00
2019-01-04T05:04:40.780Z,8.13
2019-01-04T05:07:10.201Z,9.93
2019-01-04T05:09:39.602Z,9.53
2019-01-04T05:12:09.086Z,8.23
2019-01-04T05:14:38.510Z,8.57
2019-01-04T05:17:07.926Z,8.40
2019-01-04T05:19:37.405Z,8.47
2019-01-04T05:22:06.808Z,8.47
2019-01-04T05:24:36.311Z,8.83
2019-01-04T05:27:05.701Z,8.10
2019-01-04T05:29:35.130Z,8.07
2019-01-04T05:32:04.613Z,8.90
2019-01-04T05:34:34.012Z,8.40
2019-01-04T05:37:03.485Z,9.40
2019-01-04T05:39:32.888Z,9.17
2019-01-04T05:42:02.418Z,9.00
2019-01-04T05:44:31.910Z,9.53
2019-01-04T05:47:01.320Z,9.30
2019-01-04T05:49:30.739Z,8.73
2019-01-04T05:52:00.168Z,9.67
2019-01-04T05:54:29.544Z,9.90
2019-01-04T05:56:58.967Z,10.43
2019-01-04T05:59:28.418Z,9.93
2019-01-04T06:01:57.922Z,11.17
2019-01-04T06:04:27.380Z,10.03
2019-01-04T06:06:56.801Z,10.53
2019-01-04T06:09:26.292Z,11.10
2019-01-04T06:11:55.738Z,10.50
2019-01-04T06:14:25.195Z,10.30
2019-01-04T06:16:54.609Z,11.43
2019-01-04T06:19:24.090Z,12.10
2019-01-04T06:21:53.506Z,10.67
2019-01-04T06:24:23.103Z,11.70
2019-01-04T06:26:52.527Z,11.13
2019-01-04T06:29:21.948Z,11.10
2019-01-04T06:31:51.386Z,10.47
2019-01-04T06:34:20.790Z,11.10
2019-01-04T06:36:50.444Z,11.13
2019-01-04T06:39:20.857Z,12.40
2019-01-04T06:41:50.363Z,12.40
2019-01-04T06:44:19.766Z,11.37
2019-01-04T06:47:12.396Z,11.73
2019-01-04T06:49:41.819Z,12.20
2019-01-04T06:52:11.289Z,12.63
2019-01-04T06:55:35.988Z,12.77
2019-01-04T06:58:05.483Z,11.63
2019-01-04T07:00:35.111Z,11.80
2019-01-04T07:03:04.668Z,12.53
2019-01-04T07:05:34.184Z,11.87
2019-01-04T07:08:03.711Z,13.17
2019-01-04T07:10:33.530Z,14.13
2019-01-04T07:13:03.190Z,12.07
2019-01-04T07:15:33.091Z,13.10
2019-01-04T07:18:02.634Z,13.03
2019-01-04T07:20:32.122Z,13.20
2019-01-04T07:23:01.666Z,13.90
2019-01-04T07:25:31.184Z,12.47
2019-01-04T07:28:00.743Z,11.60
2019-01-04T07:30:30.357Z,14.17
2019-01-04T07:32:59.822Z,13.17
2019-01-04T07:35:29.399Z,12.13
2019-01-04T07:37:58.839Z,13.33
2019-01-04T07:40:28.347Z,13.97
2019-01-04T07:42:59.902Z,12.97
2019-01-04T07:45:29.397Z,12.10
2019-01-04T07:47:59.048Z,11.60
2019-01-04T07:50:28.640Z,13.97
2019-01-04T07:52:58.211Z,13.63
2019-01-04T07:55:27.784Z,15.03
2019-01-04T07:57:57.371Z,13.70
2019-01-04T08:00:26.964Z,12.77
2019-01-04T08:02:58.963Z,13.63
2019-01-04T08:05:29.344Z,13.40
2019-01-04T08:07:58.957Z,14.13
2019-01-04T08:10:28.397Z,15.60
2019-01-04T08:12:57.818Z,14.33
2019-01-04T08:15:27.310Z,14.97
2019-01-04T08:17:56.946Z,13.53
2019-01-04T08:20:26.703Z,13.70
2019-01-04T08:22:56.157Z,15.70
2019-01-04T08:25:25.519Z,13.53
2019-01-04T08:27:54.913Z,13.73
2019-01-04T08:30:24.503Z,15.37
2019-01-04T08:32:54.191Z,14.40
2019-01-04T08:35:25.295Z,15.43
2019-01-04T08:37:54.761Z,14.33
2019-01-04T08:40:24.172Z,15.13
2019-01-04T08:42:54.281Z,15.70
2019-01-04T08:45:23.888Z,13.13
2019-01-04T08:47:53.405Z,17.10
2019-01-04T08:50:23.012Z,16.57
2019-01-04T08:52:52.485Z,15.50
2019-01-04T08:55:29.671Z,14.87
2019-01-04T08:57:59.059Z,14.83
2019-01-04T09:00:28.523Z,14.43
2019-01-04T09:02:58.015Z,14.90
2019-01-04T09:05:27.611Z,15.27
2019-01-04T09:07:57.573Z,14.13
2019-01-04T09:10:28.087Z,17.50
2019-01-04T09:13:41.123Z,17.13
2019-01-04T09:16:06.053Z,18.63
2019-01-04T09:18:35.527Z,16.00
2019-01-04T09:21:05.327Z,18.00
2019-01-04T09:23:35.853Z,16.87
2019-01-04T09:26:05.718Z,17.70
2019-01-04T09:28:35.474Z,18.90
2019-01-04T09:31:05.094Z,16.27
2019-01-04T09:33:34.602Z,19.43
2019-01-04T09:36:04.162Z,19.73
2019-01-04T09:38:33.607Z,19.23
2019-01-04T09:41:28.888Z,17.93
2019-01-04T09:43:58.637Z,16.57
2019-01-04T09:46:28.313Z,17.47
2019-01-04T09:48:58.040Z,16.60
2019-01-04T09:51:27.738Z,16.20
2019-01-04T09:53:57.348Z,21.13
2019-01-04T09:56:27.054Z,18.53
2019-01-04T09:58:56.591Z,20.03
2019-01-04T10:01:25.974Z,18.07
2019-01-04T10:03:55.376Z,19.83
2019-01-04T10:06:24.778Z,19.47
2019-01-04T10:08:54.481Z,20.80
2019-01-04T10:11:24.045Z,19.97
2019-01-04T10:13:53.489Z,21.27
2019-01-04T10:16:22.907Z,20.77
2019-01-04T10:18:52.293Z,19.47
2019-01-04T10:21:22.011Z,21.30
2019-01-04T10:23:51.505Z,25.07
2019-01-04T10:26:21.213Z,18.67
2019-01-04T10:28:51.195Z,21.00
2019-01-04T10:31:20.766Z,23.90
2019-01-04T10:33:50.151Z,21.63
2019-01-04T10:36:19.666Z,19.23
2019-01-04T10:38:49.456Z,25.40
2019-01-04T10:41:19.000Z,21.03
2019-01-04T10:43:48.425Z,23.90
2019-01-04T10:46:17.870Z,18.10
2019-01-04T10:48:47.277Z,20.63
2019-01-04T10:51:16.701Z,23.47
2019-01-04T10:53:46.102Z,23.13
2019-01-04T10:56:15.591Z,18.73
2019-01-04T10:58:45.014Z,19.03
2019-01-04T11:01:14.447Z,20.47
2019-01-04T11:03:43.885Z,19.70
2019-01-04T11:06:13.237Z,22.00
2019-01-04T11:08:42.626Z,20.50
2019-01-04T11:11:11.997Z,22.93
2019-01-04T11:13:41.378Z,23.03
2019-01-04T11:16:10.737Z,22.23
2019-01-04T11:18:40.183Z,20.27
2019-01-04T11:21:11.936Z,20.80
2019-01-04T11:24:08.043Z,19.33
2019-01-04T11:26:50.688Z,17.73
2019-01-04T11:29:57.208Z,18.87
2019-01-04T11:33:19.952Z,18.53
2019-01-04T11:36:12.793Z,17.57
2019-01-04T11:38:59.025Z,19.67
2019-01-04T11:42:00.714Z,20.37
2019-01-04T11:45:25.255Z,12.93
2019-01-04T11:48:12.220Z,15.30
2019-01-04T11:51:09.034Z,15.17
2019-01-04T11:53:38.400Z,14.80
2019-01-04T11:56:07.745Z,18.83
2019-01-04T11:58:37.130Z,18.70
2019-01-04T12:01:06.507Z,18.30
2019-01-04T12:03:35.870Z,19.37
2019-01-04T12:06:05.320Z,19.80
2019-01-04T12:08:34.691Z,18.33
2019-01-04T12:11:04.072Z,17.63
2019-01-04T12:13:33.488Z,18.53
2019-01-04T12:16:02.859Z,18.53
2019-01-04T12:18:32.226Z,20.03
2019-01-04T12:21:01.612Z,18.17
2019-01-04T12:23:31.425Z,18.73
2019-01-04T12:26:00.799Z,19.80
2019-01-04T12:28:30.247Z,16.33
2019-01-04T12:30:59.654Z,17.03
2019-01-04T12:33:29.017Z,15.80
2019-01-04T12:35:58.385Z,17.03
2019-01-04T12:38:27.743Z,15.63
2019-01-04T12:40:57.147Z,16.80
2019-01-04T12:43:26.548Z,17.00
2019-01-04T12:45:57.214Z,16.77
2019-01-04T12:48:26.575Z,16.90
2019-01-04T12:50:55.935Z,15.47
2019-01-04T12:53:25.296Z,16.83
2019-01-04T12:55:54.657Z,15.97
2019-01-04T12:58:24.046Z,16.17
2019-01-04T13:00:53.658Z,16.37
2019-01-04T13:03:23.001Z,15.40
2019-01-04T13:05:52.346Z,17.77
2019-01-04T13:08:21.748Z,15.73
2019-01-04T13:10:51.091Z,16.47
2019-01-04T13:13:20.578Z,16.47
2019-01-04T13:15:49.925Z,16.70
2019-01-04T13:18:19.285Z,18.40
2019-01-04T13:20:48.690Z,17.73
2019-01-04T13:23:18.061Z,18.97
2019-01-04T13:25:47.436Z,16.90
2019-01-04T13:28:16.825Z,17.20
2019-01-04T13:30:46.320Z,19.37
2019-01-04T13:33:15.670Z,15.40
2019-01-04T13:35:45.062Z,19.57
2019-01-04T13:38:19.898Z,17.17
2019-01-04T13:40:45.585Z,16.67
2019-01-04T13:43:14.955Z,16.80
2019-01-04T13:45:44.351Z,18.03
2019-01-04T13:48:13.763Z,17.47
2019-01-04T13:50:43.163Z,17.70
2019-01-04T13:53:12.526Z,18.03
2019-01-04T13:55:41.947Z,18.67
2019-01-04T13:58:11.303Z,18.60
2019-01-04T14:00:40.669Z,22.53
2019-01-04T14:03:10.077Z,16.50
2019-01-04T14:05:39.498Z,17.50
2019-01-04T14:08:08.943Z,17.67
2019-01-04T14:10:38.319Z,15.20
2019-01-04T14:13:09.360Z,17.73
2019-01-04T14:15:39.249Z,18.60
2019-01-04T14:18:08.820Z,19.03
2019-01-04T14:20:38.276Z,17.00
2019-01-04T14:23:07.655Z,17.97
2019-01-04T14:25:37.131Z,17.90
2019-01-04T14:28:06.565Z,15.40
2019-01-04T14:30:35.975Z,15.63
2019-01-04T14:33:05.424Z,16.27
2019-01-04T14:35:34.833Z,17.80
2019-01-04T14:38:04.262Z,15.07
2019-01-04T14:40:33.558Z,18.47
2019-01-04T14:43:02.981Z,15.80
2019-01-04T14:45:32.339Z,16.73
2019-01-04T14:48:01.743Z,17.33
2019-01-04T14:50:31.165Z,15.70
2019-01-04T14:53:00.541Z,16.90
2019-01-04T14:55:29.911Z,16.10
2019-01-04T14:57:59.516Z,15.97
2019-01-04T15:00:28.871Z,15.90
2019-01-04T15:02:58.324Z,18.30
2019-01-04T15:05:27.713Z,16.17
2019-01-04T15:07:57.102Z,15.43
2019-01-04T15:10:26.451Z,17.20
2019-01-04T15:12:55.824Z,16.87
2019-01-04T15:15:25.191Z,14.03
2019-01-04T15:17:54.547Z,16.47
2019-01-04T15:20:23.897Z,16.60
2019-01-04T15:22:53.239Z,17.73
2019-01-04T15:25:22.683Z,16.60
2019-01-04T15:27:52.033Z,14.90
2019-01-04T15:30:21.384Z,14.40
2019-01-04T15:32:50.781Z,15.23
2019-01-04T15:35:20.253Z,15.43
2019-01-04T15:37:49.588Z,14.53
2019-01-04T15:40:18.948Z,13.13
2019-01-04T15:42:48.296Z,13.97
2019-01-04T15:45:17.660Z,15.23
2019-01-04T15:47:47.064Z,11.87
2019-01-04T15:50:16.416Z,13.83
2019-01-04T15:52:45.858Z,14.63
2019-01-04T15:55:15.208Z,15.00
2019-01-04T15:57:44.617Z,13.60
2019-01-04T16:00:13.979Z,12.90
2019-01-04T16:02:43.316Z,15.03
2019-01-04T16:05:12.742Z,15.50
2019-01-04T16:07:42.089Z,15.37
2019-01-04T16:10:11.463Z,14.47
2019-01-04T16:12:40.815Z,13.43
2019-01-04T16:15:10.585Z,12.57
2019-01-04T16:17:40.028Z,14.13
2019-01-04T16:20:10.369Z,14.30
2019-01-04T16:22:39.715Z,13.40
2019-01-04T16:25:09.363Z,15.53
2019-01-04T16:27:38.758Z,15.63
2019-01-04T16:30:10.451Z,14.47
2019-01-04T16:32:39.825Z,14.27
2019-01-04T16:35:09.510Z,14.70
2019-01-04T16:37:38.908Z,15.67
2019-01-04T16:40:08.494Z,14.97
2019-01-04T16:42:37.843Z,13.77
